createdAt,value
2018-07-15T00:00:14.843Z,22.80
2018-07-15T00:03:16.917Z,22.86
2018-07-15T00:06:19.068Z,22.82
2018-07-15T00:09:21.872Z,22.59
2018-07-15T00:12:23.902Z,22.53
2018-07-15T00:15:26.008Z,22.55
2018-07-15T00:18:28.093Z,22.61
2018-07-15T00:21:30.204Z,22.48
2018-07-15T00:24:33.495Z,22.23
2018-07-15T00:27:35.599Z,22.11
2018-07-15T00:30:37.544Z,22.07
2018-07-15T00:33:39.645Z,22.10
2018-07-15T00:36:42.762Z,22.09
2018-07-15T00:39:44.809Z,22.01
2018-07-15T00:42:46.782Z,22.00
2018-07-15T00:45:48.851Z,21.86
2018-07-15T00:48:50.936Z,21.73
2018-07-15T00:51:53.095Z,21.66
2018-07-15T00:54:55.155Z,21.61
2018-07-15T00:57:57.226Z,21.54
2018-07-15T01:01:00.353Z,21.29
2018-07-15T01:04:02.425Z,21.07
2018-07-15T01:07:04.635Z,20.93
2018-07-15T01:10:07.788Z,20.87
2018-07-15T01:13:09.980Z,20.87
2018-07-15T01:16:12.180Z,21.00
2018-07-15T01:19:14.305Z,21.11
2018-07-15T01:22:16.308Z,21.22
2018-07-15T01:25:18.391Z,21.33
2018-07-15T01:28:20.475Z,21.39
2018-07-15T01:31:22.561Z,21.35
2018-07-15T01:34:24.722Z,21.10
2018-07-15T01:37:26.792Z,20.78
2018-07-15T01:40:28.968Z,20.60
2018-07-15T01:43:30.916Z,20.57
2018-07-15T01:46:34.582Z,20.72
2018-07-15T01:49:36.860Z,20.85
2018-07-15T01:52:39.035Z,20.92
2018-07-15T01:55:41.168Z,20.97
2018-07-15T01:58:44.356Z,20.85
2018-07-15T02:01:46.310Z,20.87
2018-07-15T02:04:48.401Z,20.68
2018-07-15T02:07:50.568Z,20.60
2018-07-15T02:10:52.644Z,20.54
2018-07-15T02:13:55.725Z,20.60
2018-07-15T02:16:57.787Z,20.62
2018-07-15T02:19:59.870Z,20.60
2018-07-15T02:23:02.835Z,20.54
2018-07-15T02:26:04.924Z,20.52
2018-07-15T02:29:07.094Z,20.48
2018-07-15T02:32:09.264Z,20.51
2018-07-15T02:35:11.332Z,20.39
2018-07-15T02:38:14.469Z,20.35
2018-07-15T02:41:16.603Z,20.25
2018-07-15T02:44:18.683Z,20.18
2018-07-15T02:47:20.895Z,20.11
2018-07-15T02:50:23.010Z,20.12
2018-07-15T02:53:25.063Z,20.10
2018-07-15T02:56:27.184Z,20.08
2018-07-15T02:59:29.317Z,20.04
2018-07-15T03:02:31.387Z,19.84
2018-07-15T03:05:34.417Z,19.74
2018-07-15T03:08:36.480Z,19.65
2018-07-15T03:11:38.613Z,19.71
2018-07-15T03:14:40.787Z,19.78
2018-07-15T03:17:42.931Z,19.83
2018-07-15T03:20:45.084Z,19.83
2018-07-15T03:23:47.233Z,19.77
2018-07-15T03:26:49.670Z,19.62
2018-07-15T03:29:51.819Z,19.53
2018-07-15T03:32:55.506Z,19.59
2018-07-15T03:35:57.600Z,19.55
2018-07-15T03:38:59.676Z,19.52
2018-07-15T03:42:01.628Z,19.48
2018-07-15T03:45:04.042Z,19.47
2018-07-15T03:48:18.676Z,19.49
2018-07-15T03:51:21.746Z,19.60
2018-07-15T03:54:23.833Z,19.64
2018-07-15T03:57:26.484Z,19.53
2018-07-15T04:00:28.690Z,19.46
2018-07-15T04:03:30.745Z,19.36
2018-07-15T04:06:32.919Z,19.44
2018-07-15T04:09:36.040Z,19.59
2018-07-15T04:12:38.236Z,19.69
2018-07-15T04:15:40.483Z,19.58
2018-07-15T04:18:42.526Z,19.36
2018-07-15T04:21:44.588Z,19.38
2018-07-15T04:24:46.654Z,19.56
2018-07-15T04:27:48.841Z,19.69
2018-07-15T04:30:50.996Z,19.69
2018-07-15T04:33:54.211Z,19.80
2018-07-15T04:36:56.482Z,19.79
2018-07-15T04:39:58.564Z,19.83
2018-07-15T04:43:00.533Z,19.96
2018-07-15T04:46:02.567Z,20.06
2018-07-15T04:49:04.803Z,20.15
2018-07-15T04:52:06.871Z,20.26
2018-07-15T04:55:08.883Z,20.34
2018-07-15T04:58:12.183Z,20.44
2018-07-15T05:01:14.244Z,20.47
2018-07-15T05:04:16.336Z,20.46
2018-07-15T05:07:18.816Z,20.45
2018-07-15T05:10:20.866Z,20.58
2018-07-15T05:13:24.175Z,20.68
2018-07-15T05:16:26.245Z,20.69
2018-07-15T05:19:28.428Z,20.78
2018-07-15T05:22:30.444Z,20.85
2018-07-15T05:25:32.609Z,20.84
2018-07-15T05:28:34.825Z,20.79
2018-07-15T05:31:36.988Z,20.91
2018-07-15T05:34:39.086Z,20.93
2018-07-15T05:37:41.240Z,20.97
2018-07-15T05:40:43.336Z,20.99
2018-07-15T05:43:45.372Z,21.22
2018-07-15T05:46:47.857Z,21.43
2018-07-15T05:49:51.016Z,21.55
2018-07-15T05:52:53.131Z,21.49
2018-07-15T05:55:55.217Z,21.53
2018-07-15T05:58:57.473Z,21.60
2018-07-15T06:01:59.560Z,21.68
2018-07-15T06:05:01.827Z,21.65
2018-07-15T06:08:04.982Z,21.62
2018-07-15T06:11:06.971Z,21.54
2018-07-15T06:14:08.973Z,21.52
2018-07-15T06:17:12.294Z,21.48
2018-07-15T06:20:14.343Z,21.54
2018-07-15T06:23:16.361Z,21.65
2018-07-15T06:26:18.475Z,21.64
2018-07-15T06:29:20.564Z,21.63
2018-07-15T06:32:22.828Z,21.68
2018-07-15T06:35:25.008Z,21.73
2018-07-15T06:38:27.111Z,21.61
2018-07-15T06:41:29.247Z,21.59
2018-07-15T06:44:31.384Z,21.87
2018-07-15T06:47:33.531Z,22.11
2018-07-15T06:50:35.979Z,22.24
2018-07-15T06:53:44.232Z,22.38
2018-07-15T06:56:46.357Z,22.55
2018-07-15T06:59:49.552Z,22.63
2018-07-15T07:02:51.627Z,22.89
2018-07-15T07:05:53.703Z,23.00
2018-07-15T07:08:55.861Z,23.23
2018-07-15T07:11:58.009Z,23.18
2018-07-15T07:15:00.183Z,23.35
2018-07-15T07:18:02.370Z,23.54
2018-07-15T07:21:05.459Z,23.66
2018-07-15T07:24:07.513Z,23.83
2018-07-15T07:27:10.606Z,23.97
2018-07-15T07:30:12.680Z,24.05
2018-07-15T07:33:14.632Z,24.09
2018-07-15T07:36:16.712Z,24.29
2018-07-15T07:39:18.981Z,24.43
2018-07-15T07:42:21.075Z,24.57
2018-07-15T07:45:23.233Z,24.68
2018-07-15T07:48:25.308Z,24.72
2018-07-15T07:51:27.378Z,24.80
2018-07-15T07:54:29.507Z,24.90
2018-07-15T07:57:31.620Z,24.69
2018-07-15T08:00:33.691Z,24.71
2018-07-15T08:03:35.651Z,24.75
2018-07-15T08:06:37.713Z,25.01
2018-07-15T08:09:39.764Z,25.00
2018-07-15T08:12:43.867Z,25.21
2018-07-15T08:15:45.972Z,25.00
2018-07-15T08:18:48.126Z,24.77
2018-07-15T08:21:54.203Z,24.81
2018-07-15T08:24:56.282Z,25.07
2018-07-15T08:27:58.768Z,25.22
2018-07-15T08:31:08.840Z,25.11
2018-07-15T08:34:11.803Z,25.31
2018-07-15T08:37:13.946Z,25.41
2018-07-15T08:40:16.049Z,25.67
2018-07-15T08:43:18.018Z,25.79
2018-07-15T08:46:20.072Z,25.90
2018-07-15T08:49:22.149Z,26.17
2018-07-15T08:52:24.292Z,26.46
2018-07-15T08:55:26.295Z,26.64
2018-07-15T08:58:28.459Z,26.62
2018-07-15T09:01:30.556Z,26.59
2018-07-15T09:04:32.619Z,26.83
2018-07-15T09:07:34.785Z,26.73
2018-07-15T09:10:37.238Z,26.55
2018-07-15T09:13:39.464Z,26.70
2018-07-15T09:16:42.468Z,26.93
2018-07-15T09:19:44.603Z,26.87
2018-07-15T09:22:46.717Z,26.75
2018-07-15T09:25:48.892Z,26.74
2018-07-15T09:28:51.020Z,26.90
2018-07-15T09:31:53.300Z,26.86
2018-07-15T09:34:55.477Z,26.88
2018-07-15T09:37:58.645Z,27.01
2018-07-15T09:41:00.708Z,26.89
2018-07-15T09:44:02.803Z,26.79
2018-07-15T09:47:04.973Z,26.86
2018-07-15T09:50:07.174Z,26.97
2018-07-15T09:53:09.391Z,27.24
2018-07-15T09:56:12.308Z,27.40
2018-07-15T09:59:14.513Z,27.59
2018-07-15T10:02:16.590Z,27.77
2018-07-15T10:05:18.712Z,27.81
2018-07-15T10:08:21.884Z,27.76
2018-07-15T10:11:24.831Z,28.12
2018-07-15T10:14:26.936Z,28.26
2018-07-15T10:17:29.322Z,28.35
2018-07-15T10:20:31.445Z,28.24
2018-07-15T10:23:33.814Z,28.32
2018-07-15T10:26:36.382Z,28.56
2018-07-15T10:29:38.612Z,28.61
2018-07-15T10:32:41.956Z,28.62
2018-07-15T10:35:44.127Z,28.82
2018-07-15T10:38:46.338Z,28.97
2018-07-15T10:41:48.525Z,29.21
2018-07-15T10:44:50.687Z,29.27
2018-07-15T10:47:52.847Z,29.06
2018-07-15T10:50:54.976Z,29.21
2018-07-15T10:53:57.168Z,29.43
2018-07-15T10:56:59.268Z,29.14
2018-07-15T11:00:01.460Z,29.15
2018-07-15T11:03:03.652Z,29.45
2018-07-15T11:06:05.923Z,29.66
2018-07-15T11:09:07.986Z,29.82
2018-07-15T11:12:10.125Z,29.70
2018-07-15T11:15:13.384Z,29.73
2018-07-15T11:18:15.543Z,29.81
2018-07-15T11:21:17.623Z,29.76
2018-07-15T11:24:19.701Z,29.87
2018-07-15T11:27:21.809Z,30.00
2018-07-15T11:30:23.916Z,30.10
2018-07-15T11:33:25.999Z,30.09
2018-07-15T11:36:27.974Z,29.72
2018-07-15T11:39:30.238Z,30.13
2018-07-15T11:42:32.398Z,30.50
2018-07-15T11:45:34.504Z,30.59
2018-07-15T11:48:36.660Z,30.75
2018-07-15T11:51:38.816Z,30.84
2018-07-15T11:54:41.995Z,31.09
2018-07-15T11:57:43.988Z,31.32
2018-07-15T12:00:46.084Z,31.48
2018-07-15T12:03:48.144Z,31.33
2018-07-15T12:06:50.128Z,31.59
2018-07-15T12:09:52.250Z,31.55
2018-07-15T12:12:54.328Z,31.38
2018-07-15T12:15:56.544Z,30.98
2018-07-15T12:18:58.583Z,30.63
2018-07-15T12:22:00.743Z,30.30
2018-07-15T12:25:02.964Z,30.19
2018-07-15T12:28:05.036Z,30.19
2018-07-15T12:31:08.243Z,30.07
2018-07-15T12:34:10.394Z,30.51
2018-07-15T12:37:13.387Z,30.63
2018-07-15T12:40:16.023Z,30.44
2018-07-15T12:43:18.122Z,30.30
2018-07-15T12:46:20.308Z,30.25
2018-07-15T12:49:22.547Z,30.15
2018-07-15T12:52:24.604Z,30.08
2018-07-15T12:55:26.992Z,30.03
2018-07-15T12:58:29.041Z,30.06
2018-07-15T13:01:31.309Z,29.90
2018-07-15T13:04:33.430Z,29.77
2018-07-15T13:07:35.509Z,29.69
2018-07-15T13:10:38.050Z,29.67
2018-07-15T13:13:40.125Z,29.00
2018-07-15T13:16:42.076Z,28.08
2018-07-15T13:19:44.148Z,27.40
2018-07-15T13:22:46.344Z,26.77
2018-07-15T13:25:48.571Z,26.44
2018-07-15T13:28:50.691Z,25.80
2018-07-15T13:31:52.869Z,25.29
2018-07-15T13:34:54.977Z,24.85
2018-07-15T13:37:58.157Z,24.31
2018-07-15T13:41:00.305Z,23.79
2018-07-15T13:44:02.482Z,23.34
2018-07-15T13:47:04.470Z,22.62
2018-07-15T13:50:06.602Z,22.18
2018-07-15T13:53:08.663Z,21.83
2018-07-15T13:56:10.741Z,21.61
2018-07-15T13:59:14.119Z,20.75
2018-07-15T14:02:16.204Z,20.40
2018-07-15T14:05:18.364Z,20.59
2018-07-15T14:08:20.440Z,20.77
2018-07-15T14:11:22.479Z,20.79
2018-07-15T14:14:24.476Z,20.73
2018-07-15T14:17:26.760Z,20.95
2018-07-15T14:20:28.809Z,21.24
2018-07-15T14:23:30.858Z,21.58
2018-07-15T14:26:33.046Z,21.74
2018-07-15T14:29:36.114Z,21.70
2018-07-15T14:32:38.406Z,21.68
2018-07-15T14:35:40.957Z,21.47
2018-07-15T14:38:44.332Z,21.41
2018-07-15T14:41:46.523Z,21.37
2018-07-15T14:44:48.591Z,21.41
2018-07-15T14:47:50.611Z,21.53
2018-07-15T14:50:52.725Z,21.61
2018-07-15T14:53:54.840Z,21.67
2018-07-15T14:56:56.847Z,21.87
2018-07-15T14:59:59.538Z,22.05
2018-07-15T15:03:01.869Z,22.12
2018-07-15T15:06:04.127Z,22.10
2018-07-15T15:09:06.675Z,22.17
2018-07-15T15:12:08.788Z,22.25
2018-07-15T15:15:10.825Z,22.32
2018-07-15T15:18:14.227Z,22.35
2018-07-15T15:21:16.338Z,22.50
2018-07-15T15:24:18.465Z,22.67
2018-07-15T15:27:20.570Z,22.74
2018-07-15T15:30:22.761Z,22.64
2018-07-15T15:33:25.110Z,22.50
2018-07-15T15:36:27.317Z,22.36
2018-07-15T15:39:29.511Z,22.30
2018-07-15T15:42:31.685Z,22.12
2018-07-15T15:45:33.667Z,22.14
2018-07-15T15:48:35.829Z,22.11
2018-07-15T15:51:37.938Z,22.04
2018-07-15T15:54:40.668Z,21.92
2018-07-15T15:57:43.515Z,21.75
2018-07-15T16:00:45.722Z,21.76
2018-07-15T16:03:47.914Z,21.85
2018-07-15T16:06:50.119Z,21.82
2018-07-15T16:09:52.256Z,21.84
2018-07-15T16:12:54.729Z,21.89
2018-07-15T16:15:57.089Z,21.90
2018-07-15T16:18:59.285Z,21.93
2018-07-15T16:22:01.437Z,21.93
2018-07-15T16:25:03.670Z,21.99
2018-07-15T16:28:05.875Z,22.03
2018-07-15T16:31:08.065Z,22.09
2018-07-15T16:34:10.354Z,22.10
2018-07-15T16:37:13.408Z,22.16
2018-07-15T16:40:15.580Z,22.23
2018-07-15T16:43:17.953Z,22.28
2018-07-15T16:46:19.961Z,22.35
2018-07-15T16:49:22.031Z,22.41
2018-07-15T16:52:24.072Z,22.37
2018-07-15T16:55:26.297Z,22.42
2018-07-15T16:58:28.333Z,22.42
2018-07-15T17:01:30.611Z,22.42
2018-07-15T17:04:32.736Z,22.26
2018-07-15T17:07:34.883Z,22.11
2018-07-15T17:10:36.897Z,22.15
2018-07-15T17:13:38.967Z,22.17
2018-07-15T17:16:41.363Z,22.19
2018-07-15T17:19:43.872Z,22.16
2018-07-15T17:22:45.983Z,22.13
2018-07-15T17:25:48.138Z,22.13
2018-07-15T17:28:50.406Z,22.17
2018-07-15T17:31:52.645Z,22.07
2018-07-15T17:34:54.670Z,22.04
2018-07-15T17:37:56.767Z,22.04
2018-07-15T17:40:58.836Z,22.05
2018-07-15T17:44:00.905Z,21.95
2018-07-15T17:47:03.103Z,21.94
2018-07-15T17:50:05.320Z,21.85
2018-07-15T17:53:07.446Z,21.79
2018-07-15T17:56:09.631Z,21.76
2018-07-15T17:59:11.649Z,21.72
2018-07-15T18:02:14.482Z,21.76
2018-07-15T18:05:17.547Z,21.81
2018-07-15T18:08:19.595Z,21.98
2018-07-15T18:11:21.696Z,22.12
2018-07-15T18:14:23.794Z,22.15
2018-07-15T18:17:25.957Z,22.21
2018-07-15T18:20:28.020Z,22.32
2018-07-15T18:23:31.095Z,22.33
2018-07-15T18:26:33.279Z,22.24
2018-07-15T18:29:35.464Z,22.16
2018-07-15T18:32:37.458Z,22.25
2018-07-15T18:35:39.670Z,22.20
2018-07-15T18:38:42.943Z,22.24
2018-07-15T18:41:45.128Z,22.26
2018-07-15T18:44:47.261Z,22.21
2018-07-15T18:47:49.303Z,22.23
2018-07-15T18:50:51.374Z,22.21
2018-07-15T18:53:53.523Z,22.19
2018-07-15T18:56:55.771Z,22.19
2018-07-15T18:59:57.776Z,22.17
2018-07-15T19:03:00.057Z,22.16
2018-07-15T19:06:02.241Z,22.09
2018-07-15T19:09:05.779Z,21.99
2018-07-15T19:12:07.927Z,21.99
2018-07-15T19:15:10.066Z,21.91
2018-07-15T19:18:12.215Z,21.90
2018-07-15T19:21:14.848Z,21.85
2018-07-15T19:24:17.020Z,21.68
2018-07-15T19:27:19.071Z,21.61
2018-07-15T19:30:21.224Z,21.63
2018-07-15T19:33:23.389Z,21.58
2018-07-15T19:36:25.464Z,21.56
2018-07-15T19:39:27.456Z,21.61
2018-07-15T19:42:30.766Z,21.67
2018-07-15T19:45:32.758Z,21.57
2018-07-15T19:48:34.911Z,21.50
2018-07-15T19:51:36.935Z,21.49
2018-07-15T19:54:42.215Z,21.47
2018-07-15T19:57:45.540Z,21.40
2018-07-15T20:00:47.606Z,21.41
2018-07-15T20:03:50.830Z,21.47
2018-07-15T20:06:53.050Z,21.46
2018-07-15T20:09:55.135Z,21.46
2018-07-15T20:12:57.661Z,21.44
2018-07-15T20:15:59.823Z,21.42
2018-07-15T20:19:01.892Z,21.40
2018-07-15T20:22:04.031Z,21.40
2018-07-15T20:25:06.434Z,21.44
2018-07-15T20:28:08.559Z,21.36
2018-07-15T20:31:10.723Z,21.37
2018-07-15T20:34:12.731Z,21.30
2018-07-15T20:37:15.483Z,21.00
2018-07-15T20:40:17.545Z,20.89
2018-07-15T20:43:19.595Z,20.87
2018-07-15T20:46:21.684Z,20.88
2018-07-15T20:49:23.791Z,20.86
2018-07-15T20:52:25.937Z,20.89
2018-07-15T20:55:29.011Z,20.87
2018-07-15T20:58:31.885Z,20.86
2018-07-15T21:01:34.344Z,20.90
2018-07-15T21:04:36.460Z,20.90
2018-07-15T21:07:39.562Z,20.94
2018-07-15T21:10:41.628Z,20.98
2018-07-15T21:13:43.692Z,20.94
2018-07-15T21:16:47.192Z,20.97
2018-07-15T21:19:49.273Z,20.99
2018-07-15T21:22:53.396Z,20.98
2018-07-15T21:25:55.456Z,20.95
2018-07-15T21:28:57.410Z,20.92
2018-07-15T21:32:00.542Z,20.83
2018-07-15T21:35:02.674Z,20.72
2018-07-15T21:38:04.999Z,20.74
2018-07-15T21:41:07.152Z,20.76
2018-07-15T21:44:10.292Z,20.70
2018-07-15T21:47:13.610Z,20.74
2018-07-15T21:50:16.412Z,20.77
2018-07-15T21:53:18.580Z,20.78
2018-07-15T21:56:20.809Z,20.77
2018-07-15T21:59:22.932Z,20.74
2018-07-15T22:02:25.013Z,20.70
2018-07-15T22:05:27.057Z,20.67
2018-07-15T22:08:40.866Z,20.64
2018-07-15T22:11:42.971Z,20.61
2018-07-15T22:14:45.963Z,20.61
2018-07-15T22:17:48.040Z,20.54
2018-07-15T22:20:50.152Z,20.51
2018-07-15T22:23:52.252Z,20.44
2018-07-15T22:26:54.347Z,20.39
2018-07-15T22:29:56.428Z,20.38
2018-07-15T22:32:58.660Z,20.42
2018-07-15T22:36:01.692Z,20.41
2018-07-15T22:39:05.366Z,20.40
2018-07-15T22:42:07.707Z,20.44
2018-07-15T22:45:09.749Z,20.45
2018-07-15T22:48:11.922Z,20.41
2018-07-15T22:51:14.004Z,20.40
2018-07-15T22:54:16.709Z,20.40
2018-07-15T22:57:18.903Z,20.35
2018-07-15T23:00:21.055Z,20.23
2018-07-15T23:03:23.219Z,20.21
2018-07-15T23:06:25.271Z,20.16
2018-07-15T23:09:27.424Z,20.19
2018-07-15T23:12:29.476Z,20.21
2018-07-15T23:15:35.816Z,20.18
2018-07-15T23:18:37.925Z,20.13
2018-07-15T23:21:39.983Z,20.07
2018-07-15T23:24:42.108Z,19.97
2018-07-15T23:27:44.445Z,20.05
2018-07-15T23:30:46.527Z,19.92
2018-07-15T23:33:48.603Z,19.89
2018-07-15T23:36:50.635Z,19.93
2018-07-15T23:39:52.567Z,19.99
2018-07-15T23:42:55.461Z,20.04
2018-07-15T23:45:57.471Z,20.07
2018-07-15T23:48:59.419Z,20.08
2018-07-15T23:52:01.598Z,20.11
2018-07-15T23:55:03.674Z,20.13
2018-07-15T23:58:05.814Z,20.18
